sensor_id;sensor_type;location;lat;lon;timestamp;P1;durP1;ratioP1;P2;durP2;ratioP2
11016;SDS011;54687;50.800;6.772;2024-02-28T00:00:22;66.82;;;52.55;;
11016;SDS011;54687;50.800;6.772;2024-02-28T00:02:49;73.32;;;55.67;;
11016;SDS011;54687;50.800;6.772;2024-02-28T00:05:17;70.13;;;53.30;;
11016;SDS011;54687;50.800;6.772;2024-02-28T00:07:44;66.10;;;53.08;;
11016;SDS011;54687;50.800;6.772;2024-02-28T00:10:12;66.25;;;52.00;;
11016;SDS011;54687;50.800;6.772;2024-02-28T00:12:39;66.93;;;51.08;;
11016;SDS011;54687;50.800;6.772;2024-02-28T00:15:06;67.30;;;51.53;;
11016;SDS011;54687;50.800;6.772;2024-02-28T00:17:37;66.28;;;50.25;;
11016;SDS011;54687;50.800;6.772;2024-02-28T00:20:06;67.47;;;52.75;;
11016;SDS011;54687;50.800;6.772;2024-02-28T00:22:35;70.75;;;52.72;;
11016;SDS011;54687;50.800;6.772;2024-02-28T00:25:02;64.18;;;50.60;;
11016;SDS011;54687;50.800;6.772;2024-02-28T00:27:31;65.25;;;51.80;;
11016;SDS011;54687;50.800;6.772;2024-02-28T00:29:58;69.78;;;54.25;;
11016;SDS011;54687;50.800;6.772;2024-02-28T00:32:24;68.63;;;54.28;;
11016;SDS011;54687;50.800;6.772;2024-02-28T00:34:51;69.32;;;53.92;;
11016;SDS011;54687;50.800;6.772;2024-02-28T00:37:19;70.70;;;53.47;;
11016;SDS011;54687;50.800;6.772;2024-02-28T00:39:48;69.15;;;52.80;;
11016;SDS011;54687;50.800;6.772;2024-02-28T00:42:16;73.68;;;55.92;;
11016;SDS011;54687;50.800;6.772;2024-02-28T00:44:43;67.78;;;52.55;;
11016;SDS011;54687;50.800;6.772;2024-02-28T00:47:09;72.60;;;55.88;;
11016;SDS011;54687;50.800;6.772;2024-02-28T00:49:36;74.88;;;55.83;;
11016;SDS011;54687;50.800;6.772;2024-02-28T00:52:03;72.10;;;53.97;;
11016;SDS011;54687;50.800;6.772;2024-02-28T00:54:30;69.95;;;52.70;;
11016;SDS011;54687;50.800;6.772;2024-02-28T00:56:58;68.32;;;53.95;;
11016;SDS011;54687;50.800;6.772;2024-02-28T00:59:25;71.95;;;56.28;;
11016;SDS011;54687;50.800;6.772;2024-02-28T01:01:52;71.07;;;53.33;;
11016;SDS011;54687;50.800;6.772;2024-02-28T01:04:18;67.20;;;52.58;;
11016;SDS011;54687;50.800;6.772;2024-02-28T01:06:45;69.72;;;53.13;;
11016;SDS011;54687;50.800;6.772;2024-02-28T01:09:11;66.50;;;51.80;;
11016;SDS011;54687;50.800;6.772;2024-02-28T01:11:38;66.28;;;52.40;;
11016;SDS011;54687;50.800;6.772;2024-02-28T01:14:06;66.22;;;50.33;;
11016;SDS011;54687;50.800;6.772;2024-02-28T01:16:32;65.80;;;50.50;;
11016;SDS011;54687;50.800;6.772;2024-02-28T01:19:00;61.63;;;48.55;;
11016;SDS011;54687;50.800;6.772;2024-02-28T01:21:31;60.25;;;46.05;;
11016;SDS011;54687;50.800;6.772;2024-02-28T01:23:59;62.63;;;46.70;;
11016;SDS011;54687;50.800;6.772;2024-02-28T01:26:28;63.58;;;49.17;;
11016;SDS011;54687;50.800;6.772;2024-02-28T01:28:55;60.33;;;46.03;;
11016;SDS011;54687;50.800;6.772;2024-02-28T01:31:23;57.00;;;46.42;;
11016;SDS011;54687;50.800;6.772;2024-02-28T01:33:50;65.45;;;47.65;;
11016;SDS011;54687;50.800;6.772;2024-02-28T01:36:16;66.53;;;48.65;;
11016;SDS011;54687;50.800;6.772;2024-02-28T01:38:44;61.92;;;44.97;;
11016;SDS011;54687;50.800;6.772;2024-02-28T01:41:11;66.32;;;49.80;;
11016;SDS011;54687;50.800;6.772;2024-02-28T01:43:39;68.03;;;49.40;;
11016;SDS011;54687;50.800;6.772;2024-02-28T01:46:11;72.15;;;49.80;;
11016;SDS011;54687;50.800;6.772;2024-02-28T01:48:47;65.18;;;47.22;;
11016;SDS011;54687;50.800;6.772;2024-02-28T01:51:14;62.60;;;46.47;;
11016;SDS011;54687;50.800;6.772;2024-02-28T01:53:42;68.72;;;50.08;;
11016;SDS011;54687;50.800;6.772;2024-02-28T01:56:10;70.82;;;51.75;;
11016;SDS011;54687;50.800;6.772;2024-02-28T01:58:37;64.72;;;48.55;;
11016;SDS011;54687;50.800;6.772;2024-02-28T02:01:05;66.32;;;48.00;;
11016;SDS011;54687;50.800;6.772;2024-02-28T02:03:54;68.65;;;49.40;;
11016;SDS011;54687;50.800;6.772;2024-02-28T02:06:22;65.95;;;48.40;;
11016;SDS011;54687;50.800;6.772;2024-02-28T02:08:49;65.55;;;48.92;;
11016;SDS011;54687;50.800;6.772;2024-02-28T02:11:16;67.32;;;48.25;;
11016;SDS011;54687;50.800;6.772;2024-02-28T02:13:47;70.88;;;51.67;;
11016;SDS011;54687;50.800;6.772;2024-02-28T02:16:15;71.38;;;49.30;;
11016;SDS011;54687;50.800;6.772;2024-02-28T02:18:41;67.20;;;48.65;;
11016;SDS011;54687;50.800;6.772;2024-02-28T02:21:09;69.50;;;48.92;;
11016;SDS011;54687;50.800;6.772;2024-02-28T02:23:40;66.45;;;48.50;;
11016;SDS011;54687;50.800;6.772;2024-02-28T02:26:07;69.60;;;50.25;;
11016;SDS011;54687;50.800;6.772;2024-02-28T02:28:33;78.05;;;53.38;;
11016;SDS011;54687;50.800;6.772;2024-02-28T02:31:00;68.90;;;51.05;;
11016;SDS011;54687;50.800;6.772;2024-02-28T02:33:28;73.18;;;50.88;;
11016;SDS011;54687;50.800;6.772;2024-02-28T02:35:55;66.50;;;50.63;;
11016;SDS011;54687;50.800;6.772;2024-02-28T02:38:22;70.35;;;51.70;;
11016;SDS011;54687;50.800;6.772;2024-02-28T02:40:49;66.05;;;49.10;;
11016;SDS011;54687;50.800;6.772;2024-02-28T02:43:16;69.22;;;49.67;;
11016;SDS011;54687;50.800;6.772;2024-02-28T02:45:43;68.93;;;50.33;;
11016;SDS011;54687;50.800;6.772;2024-02-28T02:48:10;61.15;;;46.00;;
11016;SDS011;54687;50.800;6.772;2024-02-28T02:50:37;66.68;;;50.58;;
11016;SDS011;54687;50.800;6.772;2024-02-28T02:53:10;64.63;;;47.33;;
11016;SDS011;54687;50.800;6.772;2024-02-28T02:55:37;65.63;;;48.45;;
11016;SDS011;54687;50.800;6.772;2024-02-28T02:58:05;62.17;;;45.22;;
11016;SDS011;54687;50.800;6.772;2024-02-28T03:00:31;66.03;;;48.10;;
11016;SDS011;54687;50.800;6.772;2024-02-28T03:02:58;65.10;;;46.58;;
11016;SDS011;54687;50.800;6.772;2024-02-28T03:05:24;66.50;;;48.08;;
11016;SDS011;54687;50.800;6.772;2024-02-28T03:07:51;65.60;;;48.35;;
11016;SDS011;54687;50.800;6.772;2024-02-28T03:10:19;64.20;;;47.70;;
11016;SDS011;54687;50.800;6.772;2024-02-28T03:12:46;62.05;;;46.17;;
11016;SDS011;54687;50.800;6.772;2024-02-28T03:15:14;64.28;;;47.97;;
11016;SDS011;54687;50.800;6.772;2024-02-28T03:17:41;62.80;;;46.50;;
11016;SDS011;54687;50.800;6.772;2024-02-28T03:20:09;63.33;;;46.05;;
11016;SDS011;54687;50.800;6.772;2024-02-28T03:22:38;59.17;;;44.63;;
11016;SDS011;54687;50.800;6.772;2024-02-28T03:25:05;59.47;;;46.03;;
11016;SDS011;54687;50.800;6.772;2024-02-28T03:27:32;59.28;;;46.30;;
11016;SDS011;54687;50.800;6.772;2024-02-28T03:29:59;57.03;;;42.90;;
11016;SDS011;54687;50.800;6.772;2024-02-28T03:32:26;64.65;;;48.10;;
11016;SDS011;54687;50.800;6.772;2024-02-28T03:34:54;62.55;;;47.72;;
11016;SDS011;54687;50.800;6.772;2024-02-28T03:37:24;65.10;;;47.13;;
11016;SDS011;54687;50.800;6.772;2024-02-28T03:40:12;63.95;;;47.25;;
11016;SDS011;54687;50.800;6.772;2024-02-28T03:42:57;64.03;;;47.78;;
11016;SDS011;54687;50.800;6.772;2024-02-28T03:45:27;62.55;;;47.13;;
11016;SDS011;54687;50.800;6.772;2024-02-28T03:47:55;63.72;;;47.35;;
11016;SDS011;54687;50.800;6.772;2024-02-28T03:50:22;62.83;;;46.55;;
11016;SDS011;54687;50.800;6.772;2024-02-28T03:52:49;66.05;;;48.67;;
11016;SDS011;54687;50.800;6.772;2024-02-28T03:55:15;66.88;;;48.38;;
11016;SDS011;54687;50.800;6.772;2024-02-28T03:57:42;64.18;;;47.75;;
11016;SDS011;54687;50.800;6.772;2024-02-28T04:00:12;66.90;;;48.15;;
11016;SDS011;54687;50.800;6.772;2024-02-28T04:02:42;62.25;;;47.58;;
11016;SDS011;54687;50.800;6.772;2024-02-28T04:05:10;61.97;;;47.33;;
11016;SDS011;54687;50.800;6.772;2024-02-28T04:07:37;63.22;;;47.17;;
11016;SDS011;54687;50.800;6.772;2024-02-28T04:10:04;64.03;;;47.55;;
11016;SDS011;54687;50.800;6.772;2024-02-28T04:12:31;63.95;;;47.45;;
11016;SDS011;54687;50.800;6.772;2024-02-28T04:14:58;66.72;;;49.35;;
11016;SDS011;54687;50.800;6.772;2024-02-28T04:17:24;67.85;;;51.08;;
11016;SDS011;54687;50.800;6.772;2024-02-28T04:19:51;68.38;;;49.83;;
11016;SDS011;54687;50.800;6.772;2024-02-28T04:22:19;66.47;;;49.03;;
11016;SDS011;54687;50.800;6.772;2024-02-28T04:24:46;64.97;;;48.03;;
11016;SDS011;54687;50.800;6.772;2024-02-28T04:27:12;67.82;;;50.13;;
11016;SDS011;54687;50.800;6.772;2024-02-28T04:29:39;64.97;;;48.55;;
11016;SDS011;54687;50.800;6.772;2024-02-28T04:32:05;68.50;;;50.13;;
11016;SDS011;54687;50.800;6.772;2024-02-28T04:34:32;63.95;;;48.45;;
11016;SDS011;54687;50.800;6.772;2024-02-28T04:36:59;66.22;;;49.28;;
11016;SDS011;54687;50.800;6.772;2024-02-28T04:39:26;64.47;;;49.47;;
11016;SDS011;54687;50.800;6.772;2024-02-28T04:41:53;70.63;;;51.78;;
11016;SDS011;54687;50.800;6.772;2024-02-28T04:44:20;66.05;;;48.30;;
11016;SDS011;54687;50.800;6.772;2024-02-28T04:46:46;63.85;;;47.58;;
11016;SDS011;54687;50.800;6.772;2024-02-28T04:49:13;66.43;;;48.35;;
11016;SDS011;54687;50.800;6.772;2024-02-28T04:51:39;68.68;;;50.10;;
11016;SDS011;54687;50.800;6.772;2024-02-28T04:54:06;63.30;;;47.35;;
11016;SDS011;54687;50.800;6.772;2024-02-28T04:56:38;75.60;;;53.63;;
11016;SDS011;54687;50.800;6.772;2024-02-28T04:59:05;68.30;;;50.22;;
11016;SDS011;54687;50.800;6.772;2024-02-28T05:01:32;71.07;;;51.83;;
11016;SDS011;54687;50.800;6.772;2024-02-28T05:04:00;70.78;;;51.25;;
11016;SDS011;54687;50.800;6.772;2024-02-28T05:06:28;71.63;;;52.42;;
11016;SDS011;54687;50.800;6.772;2024-02-28T05:08:54;71.18;;;50.63;;
11016;SDS011;54687;50.800;6.772;2024-02-28T05:11:21;71.68;;;51.20;;
11016;SDS011;54687;50.800;6.772;2024-02-28T05:13:49;70.03;;;50.00;;
11016;SDS011;54687;50.800;6.772;2024-02-28T05:16:16;68.93;;;50.35;;
11016;SDS011;54687;50.800;6.772;2024-02-28T05:18:43;71.95;;;52.22;;
11016;SDS011;54687;50.800;6.772;2024-02-28T05:21:09;69.43;;;51.20;;
11016;SDS011;54687;50.800;6.772;2024-02-28T05:23:36;67.97;;;52.38;;
11016;SDS011;54687;50.800;6.772;2024-02-28T05:26:03;73.05;;;51.83;;
11016;SDS011;54687;50.800;6.772;2024-02-28T05:28:31;75.75;;;52.75;;
11016;SDS011;54687;50.800;6.772;2024-02-28T05:30:59;67.90;;;50.45;;
11016;SDS011;54687;50.800;6.772;2024-02-28T05:33:28;69.57;;;50.85;;
11016;SDS011;54687;50.800;6.772;2024-02-28T05:35:54;70.90;;;51.13;;
11016;SDS011;54687;50.800;6.772;2024-02-28T05:38:21;69.65;;;51.28;;
11016;SDS011;54687;50.800;6.772;2024-02-28T05:40:48;67.65;;;50.88;;
11016;SDS011;54687;50.800;6.772;2024-02-28T05:43:14;75.22;;;51.78;;
11016;SDS011;54687;50.800;6.772;2024-02-28T05:45:41;69.93;;;51.35;;
11016;SDS011;54687;50.800;6.772;2024-02-28T05:48:09;70.93;;;53.15;;
11016;SDS011;54687;50.800;6.772;2024-02-28T05:50:35;71.00;;;51.70;;
11016;SDS011;54687;50.800;6.772;2024-02-28T05:53:02;72.00;;;51.33;;
11016;SDS011;54687;50.800;6.772;2024-02-28T05:55:29;70.60;;;52.20;;
11016;SDS011;54687;50.800;6.772;2024-02-28T05:57:56;66.82;;;49.55;;
11016;SDS011;54687;50.800;6.772;2024-02-28T06:00:23;70.25;;;49.53;;
11016;SDS011;54687;50.800;6.772;2024-02-28T06:02:49;69.90;;;50.95;;
11016;SDS011;54687;50.800;6.772;2024-02-28T06:05:17;65.07;;;47.97;;
11016;SDS011;54687;50.800;6.772;2024-02-28T06:07:44;61.30;;;45.10;;
11016;SDS011;54687;50.800;6.772;2024-02-28T06:10:10;62.25;;;45.78;;
11016;SDS011;54687;50.800;6.772;2024-02-28T06:12:37;60.78;;;45.70;;
11016;SDS011;54687;50.800;6.772;2024-02-28T06:15:04;62.60;;;47.35;;
11016;SDS011;54687;50.800;6.772;2024-02-28T06:17:30;58.67;;;43.58;;
11016;SDS011;54687;50.800;6.772;2024-02-28T06:19:57;56.38;;;42.47;;
11016;SDS011;54687;50.800;6.772;2024-02-28T06:22:24;56.13;;;42.58;;
11016;SDS011;54687;50.800;6.772;2024-02-28T06:24:51;54.90;;;41.35;;
11016;SDS011;54687;50.800;6.772;2024-02-28T06:27:18;54.05;;;41.83;;
11016;SDS011;54687;50.800;6.772;2024-02-28T06:29:44;56.85;;;42.25;;
11016;SDS011;54687;50.800;6.772;2024-02-28T06:32:11;57.38;;;42.28;;
11016;SDS011;54687;50.800;6.772;2024-02-28T06:34:37;54.75;;;41.83;;
11016;SDS011;54687;50.800;6.772;2024-02-28T06:37:04;63.83;;;44.75;;
11016;SDS011;54687;50.800;6.772;2024-02-28T06:39:32;58.72;;;43.03;;
11016;SDS011;54687;50.800;6.772;2024-02-28T06:41:59;63.45;;;43.53;;
11016;SDS011;54687;50.800;6.772;2024-02-28T06:44:25;66.20;;;46.90;;
11016;SDS011;54687;50.800;6.772;2024-02-28T06:46:52;62.17;;;42.53;;
11016;SDS011;54687;50.800;6.772;2024-02-28T06:49:18;60.13;;;44.35;;
11016;SDS011;54687;50.800;6.772;2024-02-28T06:51:45;56.17;;;41.25;;
11016;SDS011;54687;50.800;6.772;2024-02-28T06:54:11;52.63;;;38.42;;
11016;SDS011;54687;50.800;6.772;2024-02-28T06:56:39;52.75;;;39.38;;
11016;SDS011;54687;50.800;6.772;2024-02-28T06:59:06;52.13;;;39.38;;
11016;SDS011;54687;50.800;6.772;2024-02-28T07:01:33;54.35;;;39.33;;
11016;SDS011;54687;50.800;6.772;2024-02-28T07:03:59;47.20;;;36.88;;
11016;SDS011;54687;50.800;6.772;2024-02-28T07:06:26;46.05;;;34.67;;
11016;SDS011;54687;50.800;6.772;2024-02-28T07:08:52;44.20;;;34.45;;
11016;SDS011;54687;50.800;6.772;2024-02-28T07:11:21;44.97;;;36.17;;
11016;SDS011;54687;50.800;6.772;2024-02-28T07:13:49;46.45;;;35.67;;
11016;SDS011;54687;50.800;6.772;2024-02-28T07:16:16;46.20;;;35.08;;
11016;SDS011;54687;50.800;6.772;2024-02-28T07:18:43;46.72;;;36.33;;
11016;SDS011;54687;50.800;6.772;2024-02-28T07:21:09;45.78;;;36.33;;
11016;SDS011;54687;50.800;6.772;2024-02-28T07:23:38;44.42;;;36.45;;
11016;SDS011;54687;50.800;6.772;2024-02-28T07:26:05;50.28;;;37.83;;
11016;SDS011;54687;50.800;6.772;2024-02-28T07:28:32;44.78;;;34.65;;
11016;SDS011;54687;50.800;6.772;2024-02-28T07:31:00;47.33;;;37.28;;
11016;SDS011;54687;50.800;6.772;2024-02-28T07:33:26;45.53;;;36.70;;
11016;SDS011;54687;50.800;6.772;2024-02-28T07:35:53;47.95;;;38.00;;
11016;SDS011;54687;50.800;6.772;2024-02-28T07:38:20;49.08;;;40.10;;
11016;SDS011;54687;50.800;6.772;2024-02-28T07:40:50;48.63;;;37.70;;
11016;SDS011;54687;50.800;6.772;2024-02-28T07:43:17;48.03;;;38.70;;
11016;SDS011;54687;50.800;6.772;2024-02-28T07:45:44;50.15;;;38.75;;
11016;SDS011;54687;50.800;6.772;2024-02-28T07:48:13;47.92;;;38.17;;
11016;SDS011;54687;50.800;6.772;2024-02-28T07:50:39;49.85;;;39.72;;
11016;SDS011;54687;50.800;6.772;2024-02-28T07:53:07;49.55;;;37.97;;
11016;SDS011;54687;50.800;6.772;2024-02-28T07:55:33;51.28;;;40.40;;
11016;SDS011;54687;50.800;6.772;2024-02-28T07:58:00;50.47;;;41.03;;
11016;SDS011;54687;50.800;6.772;2024-02-28T08:00:26;53.25;;;41.65;;
11016;SDS011;54687;50.800;6.772;2024-02-28T08:02:53;50.22;;;40.60;;
11016;SDS011;54687;50.800;6.772;2024-02-28T08:05:22;52.20;;;40.92;;
11016;SDS011;54687;50.800;6.772;2024-02-28T08:07:49;57.78;;;44.10;;
11016;SDS011;54687;50.800;6.772;2024-02-28T08:10:15;54.28;;;42.10;;
11016;SDS011;54687;50.800;6.772;2024-02-28T08:12:42;55.92;;;43.22;;
11016;SDS011;54687;50.800;6.772;2024-02-28T08:15:09;52.28;;;40.15;;
11016;SDS011;54687;50.800;6.772;2024-02-28T08:17:36;49.88;;;40.63;;
11016;SDS011;54687;50.800;6.772;2024-02-28T08:20:03;53.42;;;41.97;;
11016;SDS011;54687;50.800;6.772;2024-02-28T08:22:32;56.65;;;43.05;;
11016;SDS011;54687;50.800;6.772;2024-02-28T08:24:59;50.75;;;39.22;;
11016;SDS011;54687;50.800;6.772;2024-02-28T08:27:26;51.47;;;40.80;;
11016;SDS011;54687;50.800;6.772;2024-02-28T08:29:52;49.80;;;39.97;;
11016;SDS011;54687;50.800;6.772;2024-02-28T08:32:19;53.92;;;41.97;;
11016;SDS011;54687;50.800;6.772;2024-02-28T08:34:46;52.83;;;41.55;;
11016;SDS011;54687;50.800;6.772;2024-02-28T08:37:12;55.83;;;42.10;;
11016;SDS011;54687;50.800;6.772;2024-02-28T08:39:40;55.05;;;42.00;;
11016;SDS011;54687;50.800;6.772;2024-02-28T08:42:07;57.22;;;44.08;;
11016;SDS011;54687;50.800;6.772;2024-02-28T08:44:33;56.75;;;44.35;;
11016;SDS011;54687;50.800;6.772;2024-02-28T08:47:00;60.10;;;46.25;;
11016;SDS011;54687;50.800;6.772;2024-02-28T08:49:26;55.08;;;43.47;;
11016;SDS011;54687;50.800;6.772;2024-02-28T08:51:54;57.03;;;46.15;;
11016;SDS011;54687;50.800;6.772;2024-02-28T08:54:20;56.22;;;42.83;;
11016;SDS011;54687;50.800;6.772;2024-02-28T08:56:48;61.30;;;44.33;;
11016;SDS011;54687;50.800;6.772;2024-02-28T08:59:15;54.35;;;43.97;;
11016;SDS011;54687;50.800;6.772;2024-02-28T09:01:41;58.20;;;47.10;;
11016;SDS011;54687;50.800;6.772;2024-02-28T09:04:08;56.58;;;45.45;;
11016;SDS011;54687;50.800;6.772;2024-02-28T09:06:35;55.55;;;43.65;;
11016;SDS011;54687;50.800;6.772;2024-02-28T09:09:02;58.00;;;46.22;;
11016;SDS011;54687;50.800;6.772;2024-02-28T09:11:29;57.28;;;45.38;;
11016;SDS011;54687;50.800;6.772;2024-02-28T09:13:57;57.42;;;45.63;;
11016;SDS011;54687;50.800;6.772;2024-02-28T09:16:23;56.30;;;45.83;;
11016;SDS011;54687;50.800;6.772;2024-02-28T09:18:50;52.08;;;43.63;;
11016;SDS011;54687;50.800;6.772;2024-02-28T09:21:16;53.83;;;43.33;;
11016;SDS011;54687;50.800;6.772;2024-02-28T09:23:43;53.60;;;44.85;;
11016;SDS011;54687;50.800;6.772;2024-02-28T09:26:10;53.35;;;44.63;;
11016;SDS011;54687;50.800;6.772;2024-02-28T09:28:36;50.45;;;42.40;;
11016;SDS011;54687;50.800;6.772;2024-02-28T09:31:04;53.53;;;42.88;;
11016;SDS011;54687;50.800;6.772;2024-02-28T09:33:31;51.53;;;44.88;;
11016;SDS011;54687;50.800;6.772;2024-02-28T09:35:57;50.17;;;44.25;;
11016;SDS011;54687;50.800;6.772;2024-02-28T09:38:24;54.88;;;43.13;;
11016;SDS011;54687;50.800;6.772;2024-02-28T09:40:51;53.22;;;41.83;;
11016;SDS011;54687;50.800;6.772;2024-02-28T09:43:19;49.50;;;41.45;;
11016;SDS011;54687;50.800;6.772;2024-02-28T09:45:56;48.85;;;40.60;;
11016;SDS011;54687;50.800;6.772;2024-02-28T09:48:28;48.80;;;40.38;;
11016;SDS011;54687;50.800;6.772;2024-02-28T09:50:55;50.45;;;42.80;;
11016;SDS011;54687;50.800;6.772;2024-02-28T09:53:22;47.30;;;41.20;;
11016;SDS011;54687;50.800;6.772;2024-02-28T09:55:50;50.42;;;41.65;;
11016;SDS011;54687;50.800;6.772;2024-02-28T09:58:17;46.58;;;41.08;;
11016;SDS011;54687;50.800;6.772;2024-02-28T10:00:45;48.65;;;39.47;;
11016;SDS011;54687;50.800;6.772;2024-02-28T10:03:13;52.45;;;42.28;;
11016;SDS011;54687;50.800;6.772;2024-02-28T10:05:44;49.65;;;40.42;;
11016;SDS011;54687;50.800;6.772;2024-02-28T10:08:12;49.92;;;40.67;;
11016;SDS011;54687;50.800;6.772;2024-02-28T10:10:44;47.30;;;39.78;;
11016;SDS011;54687;50.800;6.772;2024-02-28T10:13:12;49.55;;;41.13;;
11016;SDS011;54687;50.800;6.772;2024-02-28T10:15:39;46.88;;;39.70;;
11016;SDS011;54687;50.800;6.772;2024-02-28T10:18:06;44.47;;;37.53;;
11016;SDS011;54687;50.800;6.772;2024-02-28T10:20:32;45.22;;;38.30;;
11016;SDS011;54687;50.800;6.772;2024-02-28T10:23:04;46.63;;;39.45;;
11016;SDS011;54687;50.800;6.772;2024-02-28T10:25:31;45.35;;;39.65;;
11016;SDS011;54687;50.800;6.772;2024-02-28T10:27:59;43.72;;;36.92;;
11016;SDS011;54687;50.800;6.772;2024-02-28T10:30:26;39.17;;;34.55;;
11016;SDS011;54687;50.800;6.772;2024-02-28T10:32:52;43.53;;;37.13;;
11016;SDS011;54687;50.800;6.772;2024-02-28T10:35:20;44.10;;;37.72;;
11016;SDS011;54687;50.800;6.772;2024-02-28T10:37:51;41.15;;;36.50;;
11016;SDS011;54687;50.800;6.772;2024-02-28T10:40:19;40.30;;;35.45;;
11016;SDS011;54687;50.800;6.772;2024-02-28T10:42:46;38.55;;;34.00;;
11016;SDS011;54687;50.800;6.772;2024-02-28T10:45:15;42.15;;;36.67;;
11016;SDS011;54687;50.800;6.772;2024-02-28T10:47:43;40.38;;;34.55;;
11016;SDS011;54687;50.800;6.772;2024-02-28T10:50:11;40.72;;;34.83;;
11016;SDS011;54687;50.800;6.772;2024-02-28T10:52:44;36.97;;;32.88;;
11016;SDS011;54687;50.800;6.772;2024-02-28T10:55:12;40.10;;;34.88;;
11016;SDS011;54687;50.800;6.772;2024-02-28T10:57:43;35.95;;;32.05;;
11016;SDS011;54687;50.800;6.772;2024-02-28T11:00:13;37.95;;;32.92;;
11016;SDS011;54687;50.800;6.772;2024-02-28T11:02:42;35.70;;;31.90;;
11016;SDS011;54687;50.800;6.772;2024-02-28T11:05:09;38.58;;;32.53;;
11016;SDS011;54687;50.800;6.772;2024-02-28T11:07:36;33.92;;;30.17;;
11016;SDS011;54687;50.800;6.772;2024-02-28T11:10:07;34.17;;;30.38;;
11016;SDS011;54687;50.800;6.772;2024-02-28T11:12:35;37.08;;;32.80;;
11016;SDS011;54687;50.800;6.772;2024-02-28T11:15:04;33.95;;;30.25;;
11016;SDS011;54687;50.800;6.772;2024-02-28T11:17:32;34.60;;;30.25;;
11016;SDS011;54687;50.800;6.772;2024-02-28T11:19:59;36.95;;;31.45;;
11016;SDS011;54687;50.800;6.772;2024-02-28T11:22:27;33.58;;;29.70;;
11016;SDS011;54687;50.800;6.772;2024-02-28T11:24:54;34.95;;;29.65;;
11016;SDS011;54687;50.800;6.772;2024-02-28T11:27:22;35.42;;;31.27;;
11016;SDS011;54687;50.800;6.772;2024-02-28T11:29:48;32.25;;;28.58;;
11016;SDS011;54687;50.800;6.772;2024-02-28T11:32:17;33.63;;;28.92;;
11016;SDS011;54687;50.800;6.772;2024-02-28T11:34:43;37.42;;;31.38;;
11016;SDS011;54687;50.800;6.772;2024-02-28T11:37:11;35.55;;;29.77;;
11016;SDS011;54687;50.800;6.772;2024-02-28T11:39:38;33.97;;;30.10;;
11016;SDS011;54687;50.800;6.772;2024-02-28T11:42:08;35.83;;;28.73;;
11016;SDS011;54687;50.800;6.772;2024-02-28T11:44:36;32.75;;;26.67;;
11016;SDS011;54687;50.800;6.772;2024-02-28T11:47:03;27.40;;;23.40;;
11016;SDS011;54687;50.800;6.772;2024-02-28T11:49:33;30.02;;;26.65;;
11016;SDS011;54687;50.800;6.772;2024-02-28T11:52:00;30.17;;;25.30;;
11016;SDS011;54687;50.800;6.772;2024-02-28T11:54:26;32.60;;;27.40;;
11016;SDS011;54687;50.800;6.772;2024-02-28T11:56:53;27.48;;;24.48;;
11016;SDS011;54687;50.800;6.772;2024-02-28T11:59:20;26.33;;;23.50;;
11016;SDS011;54687;50.800;6.772;2024-02-28T12:01:46;24.63;;;21.80;;
11016;SDS011;54687;50.800;6.772;2024-02-28T12:04:13;24.90;;;21.65;;
11016;SDS011;54687;50.800;6.772;2024-02-28T12:06:41;22.40;;;20.02;;
11016;SDS011;54687;50.800;6.772;2024-02-28T12:09:09;24.30;;;20.55;;
11016;SDS011;54687;50.800;6.772;2024-02-28T12:11:39;25.35;;;20.75;;
11016;SDS011;54687;50.800;6.772;2024-02-28T12:14:06;20.08;;;17.55;;
11016;SDS011;54687;50.800;6.772;2024-02-28T12:16:34;19.42;;;17.33;;
11016;SDS011;54687;50.800;6.772;2024-02-28T12:19:02;18.63;;;16.77;;
11016;SDS011;54687;50.800;6.772;2024-02-28T12:21:29;18.25;;;16.30;;
11016;SDS011;54687;50.800;6.772;2024-02-28T12:23:57;17.15;;;15.35;;
11016;SDS011;54687;50.800;6.772;2024-02-28T12:26:24;17.52;;;15.45;;
11016;SDS011;54687;50.800;6.772;2024-02-28T12:28:50;16.65;;;14.60;;
11016;SDS011;54687;50.800;6.772;2024-02-28T12:31:17;17.27;;;14.15;;
11016;SDS011;54687;50.800;6.772;2024-02-28T12:33:44;14.23;;;12.70;;
11016;SDS011;54687;50.800;6.772;2024-02-28T12:36:11;15.23;;;13.18;;
11016;SDS011;54687;50.800;6.772;2024-02-28T12:38:39;13.10;;;11.65;;
11016;SDS011;54687;50.800;6.772;2024-02-28T12:41:07;13.10;;;11.70;;
11016;SDS011;54687;50.800;6.772;2024-02-28T12:43:34;12.65;;;11.35;;
11016;SDS011;54687;50.800;6.772;2024-02-28T12:46:02;12.38;;;11.07;;
11016;SDS011;54687;50.800;6.772;2024-02-28T12:48:29;13.52;;;11.55;;
11016;SDS011;54687;50.800;6.772;2024-02-28T12:50:56;12.88;;;11.48;;
11016;SDS011;54687;50.800;6.772;2024-02-28T12:53:23;15.35;;;12.95;;
11016;SDS011;54687;50.800;6.772;2024-02-28T12:55:50;14.07;;;12.35;;
11016;SDS011;54687;50.800;6.772;2024-02-28T12:58:18;15.70;;;13.75;;
11016;SDS011;54687;50.800;6.772;2024-02-28T13:00:44;13.75;;;12.35;;
11016;SDS011;54687;50.800;6.772;2024-02-28T13:03:11;15.77;;;13.23;;
11016;SDS011;54687;50.800;6.772;2024-02-28T13:05:37;14.57;;;12.02;;
11016;SDS011;54687;50.800;6.772;2024-02-28T13:08:04;14.30;;;12.38;;
11016;SDS011;54687;50.800;6.772;2024-02-28T13:10:31;13.27;;;11.80;;
11016;SDS011;54687;50.800;6.772;2024-02-28T13:13:01;13.02;;;11.20;;
11016;SDS011;54687;50.800;6.772;2024-02-28T13:15:29;12.35;;;10.90;;
11016;SDS011;54687;50.800;6.772;2024-02-28T13:17:56;12.77;;;9.98;;
11016;SDS011;54687;50.800;6.772;2024-02-28T13:20:23;12.55;;;10.68;;
11016;SDS011;54687;50.800;6.772;2024-02-28T13:22:49;12.25;;;10.48;;
11016;SDS011;54687;50.800;6.772;2024-02-28T13:25:16;11.48;;;9.68;;
11016;SDS011;54687;50.800;6.772;2024-02-28T13:27:44;10.73;;;9.63;;
11016;SDS011;54687;50.800;6.772;2024-02-28T13:30:11;11.10;;;9.95;;
11016;SDS011;54687;50.800;6.772;2024-02-28T13:32:40;10.50;;;9.40;;
11016;SDS011;54687;50.800;6.772;2024-02-28T13:35:07;10.00;;;8.70;;
11016;SDS011;54687;50.800;6.772;2024-02-28T13:37:34;10.00;;;8.75;;
11016;SDS011;54687;50.800;6.772;2024-02-28T13:40:02;11.07;;;9.20;;
11016;SDS011;54687;50.800;6.772;2024-02-28T13:42:29;9.90;;;8.90;;
11016;SDS011;54687;50.800;6.772;2024-02-28T13:44:56;8.77;;;7.88;;
11016;SDS011;54687;50.800;6.772;2024-02-28T13:47:22;9.43;;;8.38;;
11016;SDS011;54687;50.800;6.772;2024-02-28T13:49:50;10.73;;;9.18;;
11016;SDS011;54687;50.800;6.772;2024-02-28T13:52:17;10.68;;;9.10;;
11016;SDS011;54687;50.800;6.772;2024-02-28T13:54:44;11.25;;;8.40;;
11016;SDS011;54687;50.800;6.772;2024-02-28T13:57:12;10.35;;;8.90;;
11016;SDS011;54687;50.800;6.772;2024-02-28T13:59:39;9.73;;;8.73;;
11016;SDS011;54687;50.800;6.772;2024-02-28T14:02:06;10.68;;;9.10;;
11016;SDS011;54687;50.800;6.772;2024-02-28T14:04:34;11.70;;;9.75;;
11016;SDS011;54687;50.800;6.772;2024-02-28T14:07:02;10.85;;;9.43;;
11016;SDS011;54687;50.800;6.772;2024-02-28T14:09:29;10.43;;;9.02;;
11016;SDS011;54687;50.800;6.772;2024-02-28T14:11:55;10.52;;;9.43;;
11016;SDS011;54687;50.800;6.772;2024-02-28T14:14:22;10.23;;;9.23;;
11016;SDS011;54687;50.800;6.772;2024-02-28T14:16:49;9.48;;;8.48;;
11016;SDS011;54687;50.800;6.772;2024-02-28T14:19:16;9.75;;;8.35;;
11016;SDS011;54687;50.800;6.772;2024-02-28T14:21:43;10.93;;;9.82;;
11016;SDS011;54687;50.800;6.772;2024-02-28T14:24:11;9.85;;;8.85;;